createdAt,value
2017-12-14T00:00:14.575Z,8.78
2017-12-14T00:02:41.156Z,8.85
2017-12-14T00:05:07.596Z,8.79
2017-12-14T00:07:33.985Z,8.73
2017-12-14T00:10:00.380Z,8.73
2017-12-14T00:12:26.827Z,8.71
2017-12-14T00:14:53.239Z,8.63
2017-12-14T00:17:19.663Z,8.62
2017-12-14T00:19:46.139Z,8.62
2017-12-14T00:22:12.616Z,8.66
2017-12-14T00:24:38.901Z,8.71
2017-12-14T00:27:05.301Z,8.67
2017-12-14T00:29:31.627Z,8.67
2017-12-14T00:31:57.985Z,8.67
2017-12-14T00:34:24.418Z,8.65
2017-12-14T00:36:50.827Z,8.70
2017-12-14T00:39:17.182Z,8.71
2017-12-14T00:41:43.718Z,8.67
2017-12-14T00:44:10.258Z,8.71
2017-12-14T00:46:36.716Z,8.69
2017-12-14T00:49:03.164Z,8.71
2017-12-14T00:51:29.527Z,8.70
2017-12-14T00:53:55.987Z,8.73
2017-12-14T00:56:22.566Z,8.85
2017-12-14T00:58:49.059Z,8.83
2017-12-14T01:01:15.427Z,8.75
2017-12-14T01:03:41.872Z,8.76
2017-12-14T01:06:08.461Z,8.68
2017-12-14T01:08:34.920Z,8.65
2017-12-14T01:11:01.429Z,8.60
2017-12-14T01:13:27.868Z,8.58
2017-12-14T01:15:54.290Z,8.69
2017-12-14T01:18:20.966Z,8.77
2017-12-14T01:20:47.406Z,8.74
2017-12-14T01:23:13.885Z,8.76
2017-12-14T01:25:40.520Z,8.72
2017-12-14T01:28:07.036Z,8.75
2017-12-14T01:30:33.513Z,8.73
2017-12-14T01:33:00.317Z,8.77
2017-12-14T01:35:26.772Z,8.71
2017-12-14T01:37:53.233Z,8.80
2017-12-14T01:40:19.845Z,8.81
2017-12-14T01:42:46.278Z,8.82
2017-12-14T01:45:12.802Z,8.82
2017-12-14T01:47:39.362Z,8.83
2017-12-14T01:50:05.912Z,8.84
2017-12-14T01:52:32.421Z,8.61
2017-12-14T01:54:58.996Z,8.71
2017-12-14T01:57:25.458Z,8.81
2017-12-14T01:59:52.073Z,8.81
2017-12-14T02:02:18.665Z,8.92
2017-12-14T02:04:45.196Z,8.87
2017-12-14T02:07:11.658Z,8.91
2017-12-14T02:09:38.369Z,8.78
2017-12-14T02:12:04.822Z,8.87
2017-12-14T02:14:31.346Z,8.85
2017-12-14T02:16:57.848Z,8.84
2017-12-14T02:19:24.357Z,8.83
2017-12-14T02:21:50.793Z,8.74
2017-12-14T02:24:17.502Z,8.74
2017-12-14T02:26:44.035Z,8.78
2017-12-14T02:29:10.469Z,8.77
2017-12-14T02:31:37.014Z,8.87
2017-12-14T02:34:03.437Z,8.81
2017-12-14T02:36:29.912Z,8.80
2017-12-14T02:38:56.438Z,8.81
2017-12-14T02:41:22.914Z,8.75
2017-12-14T02:43:49.375Z,8.68
2017-12-14T02:46:16.014Z,8.68
2017-12-14T02:48:42.529Z,8.66
2017-12-14T02:51:09.062Z,8.71
2017-12-14T02:53:35.574Z,8.70
2017-12-14T02:56:02.007Z,8.84
2017-12-14T02:58:28.485Z,8.82
2017-12-14T03:00:55.001Z,8.80
2017-12-14T03:03:21.446Z,8.88
2017-12-14T03:05:48.041Z,8.90
2017-12-14T03:08:14.691Z,8.91
2017-12-14T03:10:41.131Z,8.88
2017-12-14T03:13:07.573Z,8.85
2017-12-14T03:15:34.190Z,8.83
2017-12-14T03:18:00.725Z,8.82
2017-12-14T03:20:27.161Z,8.82
2017-12-14T03:22:53.685Z,8.73
2017-12-14T03:25:20.109Z,8.63
2017-12-14T03:27:46.551Z,8.71
2017-12-14T03:30:13.707Z,8.69
2017-12-14T03:32:40.138Z,8.64
2017-12-14T03:35:06.654Z,8.65
2017-12-14T03:37:33.206Z,8.66
2017-12-14T03:39:59.674Z,8.71
2017-12-14T03:42:26.189Z,8.77
2017-12-14T03:44:52.701Z,8.82
2017-12-14T03:47:19.225Z,8.73
2017-12-14T03:49:45.793Z,8.70
2017-12-14T03:52:12.462Z,8.64
2017-12-14T03:54:38.950Z,8.60
2017-12-14T03:57:12.549Z,8.62
2017-12-14T03:59:39.070Z,8.59
2017-12-14T04:02:05.521Z,8.57
2017-12-14T04:04:32.049Z,8.58
2017-12-14T04:06:58.567Z,8.63
2017-12-14T04:09:25.170Z,8.67
2017-12-14T04:11:51.932Z,8.67
2017-12-14T04:14:18.635Z,8.61
2017-12-14T04:16:45.165Z,8.63
2017-12-14T04:19:11.801Z,8.65
2017-12-14T04:21:38.326Z,8.64
2017-12-14T04:24:04.854Z,8.63
2017-12-14T04:26:31.565Z,8.50
2017-12-14T04:28:58.070Z,8.41
2017-12-14T04:31:24.609Z,8.39
2017-12-14T04:33:51.382Z,8.38
2017-12-14T04:36:17.925Z,8.41
2017-12-14T04:38:44.466Z,8.37
2017-12-14T04:41:11.054Z,8.30
2017-12-14T04:43:37.598Z,8.26
2017-12-14T04:46:04.148Z,8.20
2017-12-14T04:48:30.750Z,8.10
2017-12-14T04:50:57.289Z,8.13
2017-12-14T04:53:23.818Z,8.10
2017-12-14T04:55:50.370Z,8.10
2017-12-14T04:58:16.906Z,8.08
2017-12-14T05:00:43.546Z,8.04
2017-12-14T05:03:10.106Z,8.08
2017-12-14T05:05:36.805Z,8.19
2017-12-14T05:08:03.438Z,8.22
2017-12-14T05:10:30.050Z,8.31
2017-12-14T05:12:56.590Z,8.32
2017-12-14T05:15:23.146Z,8.27
2017-12-14T05:17:49.878Z,8.23
2017-12-14T05:20:16.462Z,8.15
2017-12-14T05:22:43.033Z,8.14
2017-12-14T05:25:09.805Z,8.13
2017-12-14T05:27:36.381Z,8.15
2017-12-14T05:30:02.938Z,8.16
2017-12-14T05:32:29.576Z,8.13
2017-12-14T05:34:56.077Z,8.10
2017-12-14T05:37:22.790Z,8.07
2017-12-14T05:39:49.457Z,8.04
2017-12-14T05:42:15.993Z,8.01
2017-12-14T05:44:42.502Z,8.00
2017-12-14T05:47:09.076Z,8.01
2017-12-14T05:49:35.793Z,7.99
2017-12-14T05:52:02.433Z,7.99
2017-12-14T05:54:29.018Z,7.88
2017-12-14T05:56:55.637Z,7.81
2017-12-14T05:59:22.495Z,7.83
2017-12-14T06:01:50.745Z,7.85
2017-12-14T06:04:17.701Z,7.82
2017-12-14T06:06:44.229Z,7.86
2017-12-14T06:09:10.891Z,7.82
2017-12-14T06:11:37.457Z,7.73
2017-12-14T06:14:04.065Z,7.57
2017-12-14T06:16:30.664Z,7.53
2017-12-14T06:18:57.323Z,7.66
2017-12-14T06:21:23.927Z,7.80
2017-12-14T06:23:50.614Z,7.92
2017-12-14T06:26:17.242Z,7.99
2017-12-14T06:28:44.131Z,8.07
2017-12-14T06:31:10.761Z,8.16
2017-12-14T06:33:37.362Z,8.23
2017-12-14T06:36:04.042Z,8.25
2017-12-14T06:38:30.705Z,8.26
2017-12-14T06:40:57.290Z,8.26
2017-12-14T06:43:23.905Z,8.24
2017-12-14T06:45:50.621Z,8.25
2017-12-14T06:48:17.189Z,8.23
2017-12-14T06:50:43.786Z,8.19
2017-12-14T06:53:10.382Z,8.18
2017-12-14T06:55:36.929Z,8.21
2017-12-14T06:58:03.732Z,8.21
2017-12-14T07:00:30.351Z,8.09
2017-12-14T07:03:09.030Z,8.09
2017-12-14T07:05:35.509Z,8.09
2017-12-14T07:08:02.140Z,8.13
2017-12-14T07:10:28.674Z,8.17
2017-12-14T07:12:55.497Z,8.33
2017-12-14T07:15:22.178Z,8.41
2017-12-14T07:17:48.749Z,8.48
2017-12-14T07:20:15.385Z,8.55
2017-12-14T07:22:41.966Z,8.55
2017-12-14T07:25:08.657Z,8.41
2017-12-14T07:27:35.394Z,8.47
2017-12-14T07:30:02.139Z,8.37
2017-12-14T07:32:28.767Z,8.42
2017-12-14T07:34:55.421Z,8.52
2017-12-14T07:37:21.961Z,8.61
2017-12-14T07:39:48.469Z,8.63
2017-12-14T07:42:27.009Z,8.70
2017-12-14T07:58:20.721Z,9.19
2017-12-14T08:00:47.274Z,9.23
2017-12-14T08:03:13.819Z,9.32
2017-12-14T08:05:40.550Z,9.43
2017-12-14T08:08:07.269Z,9.56
2017-12-14T08:10:33.874Z,9.67
2017-12-14T08:13:00.548Z,9.77
2017-12-14T08:15:27.231Z,9.86
2017-12-14T08:17:53.778Z,9.95
2017-12-14T08:20:20.418Z,10.03
2017-12-14T08:22:47.012Z,10.08
2017-12-14T08:25:13.598Z,10.02
2017-12-14T08:27:40.497Z,10.13
2017-12-14T08:30:07.156Z,10.20
2017-12-14T08:32:33.717Z,10.34
2017-12-14T08:35:00.661Z,10.42
2017-12-14T08:37:27.287Z,10.41
2017-12-14T08:39:53.901Z,10.49
2017-12-14T08:42:20.583Z,10.55
2017-12-14T08:44:47.153Z,10.57
2017-12-14T08:47:13.785Z,10.50
2017-12-14T08:49:40.341Z,10.54
2017-12-14T08:52:06.962Z,10.50
2017-12-14T08:54:33.558Z,10.43
2017-12-14T08:57:00.131Z,10.52
2017-12-14T08:59:26.742Z,10.59
2017-12-14T09:01:53.270Z,10.75
2017-12-14T09:04:19.890Z,10.95
2017-12-14T09:06:46.575Z,11.05
2017-12-14T09:09:13.343Z,11.13
2017-12-14T09:11:39.938Z,11.30
2017-12-14T09:14:09.438Z,11.41
2017-12-14T09:16:36.201Z,11.60
2017-12-14T09:19:02.889Z,11.71
2017-12-14T09:21:29.521Z,11.78
2017-12-14T09:23:56.161Z,11.90
2017-12-14T09:26:22.766Z,11.79
2017-12-14T09:28:49.317Z,11.57
2017-12-14T09:31:15.930Z,11.37
2017-12-14T09:33:42.858Z,11.28
2017-12-14T09:36:09.434Z,11.12
2017-12-14T09:38:36.019Z,11.17
2017-12-14T09:41:02.650Z,11.41
2017-12-14T09:43:29.158Z,11.64
2017-12-14T09:45:55.893Z,11.89
2017-12-14T09:48:22.510Z,11.80
2017-12-14T09:50:49.090Z,11.88
2017-12-14T09:53:15.607Z,12.09
2017-12-14T09:55:42.240Z,12.34
2017-12-14T09:58:09.006Z,12.32
2017-12-14T10:00:35.646Z,12.41
2017-12-14T10:03:03.912Z,12.60
2017-12-14T10:05:30.458Z,12.70
2017-12-14T10:07:57.371Z,12.78
2017-12-14T10:10:23.930Z,12.74
2017-12-14T10:12:50.478Z,12.87
2017-12-14T10:15:17.019Z,12.92
2017-12-14T10:17:43.798Z,12.87
2017-12-14T10:20:10.354Z,12.96
2017-12-14T10:22:36.933Z,12.91
2017-12-14T10:25:03.549Z,12.87
2017-12-14T10:27:30.105Z,12.88
2017-12-14T10:29:56.661Z,12.94
2017-12-14T10:32:23.302Z,13.16
2017-12-14T10:34:49.977Z,13.35
2017-12-14T10:37:16.923Z,13.28
2017-12-14T10:39:43.490Z,13.35
2017-12-14T10:42:10.052Z,13.37
2017-12-14T10:44:36.593Z,13.42
2017-12-14T10:47:03.300Z,13.57
2017-12-14T10:49:29.862Z,13.74
2017-12-14T10:51:56.562Z,13.42
2017-12-14T10:54:25.289Z,13.22
2017-12-14T10:56:52.055Z,13.04
2017-12-14T10:59:18.737Z,13.33
2017-12-14T11:01:45.371Z,13.66
2017-12-14T11:04:12.079Z,13.82
2017-12-14T11:06:38.686Z,14.06
2017-12-14T11:09:05.349Z,14.13
2017-12-14T11:11:32.065Z,14.15
2017-12-14T11:13:58.782Z,14.22
2017-12-14T11:16:25.442Z,14.16
2017-12-14T11:18:52.006Z,14.23
2017-12-14T11:21:18.609Z,14.16
2017-12-14T11:23:45.322Z,14.13
2017-12-14T11:26:11.926Z,14.17
2017-12-14T11:28:38.538Z,14.32
2017-12-14T11:31:05.160Z,14.44
2017-12-14T11:33:32.597Z,14.16
2017-12-14T11:35:59.210Z,13.96
2017-12-14T11:38:25.969Z,14.05
2017-12-14T11:40:52.524Z,14.00
2017-12-14T11:43:19.141Z,14.13
2017-12-14T11:45:45.774Z,14.06
2017-12-14T11:48:12.325Z,13.95
2017-12-14T11:50:39.038Z,13.82
2017-12-14T11:53:05.681Z,13.51
2017-12-14T11:55:32.390Z,13.14
2017-12-14T11:57:58.930Z,13.22
2017-12-14T12:00:25.793Z,13.23
2017-12-14T12:02:52.377Z,13.53
2017-12-14T12:05:19.014Z,13.75
2017-12-14T12:07:45.786Z,13.89
2017-12-14T12:10:12.421Z,13.99
2017-12-14T12:12:39.026Z,14.10
2017-12-14T12:15:05.679Z,14.17
2017-12-14T12:17:32.209Z,14.25
2017-12-14T12:19:58.758Z,14.05
2017-12-14T12:22:25.539Z,13.75
2017-12-14T12:24:52.264Z,13.73
2017-12-14T12:27:18.822Z,13.94
2017-12-14T12:29:45.533Z,13.72
2017-12-14T12:32:12.170Z,13.81
2017-12-14T12:34:38.746Z,13.90
2017-12-14T12:37:05.583Z,14.15
2017-12-14T12:39:32.187Z,14.27
2017-12-14T12:41:58.762Z,14.33
2017-12-14T12:44:25.342Z,14.28
2017-12-14T12:46:51.850Z,14.27
2017-12-14T12:49:18.467Z,14.36
2017-12-14T12:51:45.062Z,14.47
2017-12-14T12:54:11.609Z,14.54
2017-12-14T12:56:38.186Z,14.61
2017-12-14T12:59:04.769Z,14.59
2017-12-14T13:01:31.314Z,14.55
2017-12-14T13:03:57.855Z,14.44
2017-12-14T13:06:24.614Z,14.39
2017-12-14T13:08:51.258Z,14.38
2017-12-14T13:11:17.821Z,14.43
2017-12-14T13:13:44.734Z,14.42
2017-12-14T13:16:11.449Z,14.49
2017-12-14T13:18:37.985Z,14.41
2017-12-14T13:21:04.678Z,14.43
2017-12-14T13:23:31.319Z,14.44
2017-12-14T13:25:57.882Z,14.42
2017-12-14T13:28:24.778Z,14.39
2017-12-14T13:30:51.365Z,14.40
2017-12-14T13:33:18.002Z,14.33
2017-12-14T13:35:44.658Z,14.24
2017-12-14T13:38:11.192Z,14.27
2017-12-14T13:40:37.993Z,14.24
2017-12-14T13:43:04.676Z,14.20
2017-12-14T13:45:31.211Z,14.07
2017-12-14T13:47:57.805Z,14.03
2017-12-14T13:50:24.391Z,14.05
2017-12-14T13:52:50.974Z,14.00
2017-12-14T13:55:17.522Z,13.96
2017-12-14T13:57:44.322Z,14.01
2017-12-14T14:00:10.935Z,14.07
2017-12-14T14:02:37.534Z,14.11
2017-12-14T14:05:04.297Z,14.08
2017-12-14T14:07:30.780Z,14.09
2017-12-14T14:09:57.635Z,14.04
2017-12-14T14:12:24.254Z,14.04
2017-12-14T14:14:50.773Z,13.99
2017-12-14T14:17:17.243Z,13.90
2017-12-14T14:19:43.856Z,13.85
2017-12-14T14:22:10.366Z,13.80
2017-12-14T14:24:36.913Z,13.73
2017-12-14T14:27:03.651Z,13.69
2017-12-14T14:29:30.126Z,13.59
2017-12-14T14:31:56.699Z,13.53
2017-12-14T14:34:23.302Z,13.47
2017-12-14T14:36:49.869Z,13.40
2017-12-14T14:39:16.373Z,13.42
2017-12-14T14:41:42.926Z,13.36
2017-12-14T14:44:09.402Z,13.28
2017-12-14T14:46:35.892Z,13.18
2017-12-14T14:49:02.502Z,13.11
2017-12-14T14:51:29.010Z,13.10
2017-12-14T14:53:55.539Z,13.11
2017-12-14T14:56:22.033Z,13.15
2017-12-14T14:58:48.501Z,13.12
2017-12-14T15:01:15.005Z,13.09
2017-12-14T15:03:43.799Z,13.06
2017-12-14T15:06:10.804Z,13.06
2017-12-14T15:08:37.295Z,13.07
2017-12-14T15:11:03.814Z,13.04
2017-12-14T15:13:30.307Z,13.04
2017-12-14T15:15:56.757Z,12.98
2017-12-14T15:18:23.379Z,12.89
2017-12-14T15:20:49.839Z,12.90
2017-12-14T15:23:16.315Z,12.86
2017-12-14T15:25:42.834Z,12.82
2017-12-14T15:28:09.554Z,12.80
2017-12-14T15:30:36.018Z,12.73
2017-12-14T15:33:02.502Z,12.68
2017-12-14T15:35:29.138Z,12.69
2017-12-14T15:37:55.716Z,12.64
2017-12-14T15:40:22.333Z,12.62
2017-12-14T15:42:49.016Z,12.56
2017-12-14T15:45:15.498Z,12.55
2017-12-14T15:47:42.012Z,12.51
2017-12-14T15:50:08.478Z,12.46
2017-12-14T15:52:35.430Z,12.43
2017-12-14T15:55:01.954Z,12.41
2017-12-14T15:57:28.396Z,12.38
2017-12-14T15:59:54.875Z,12.27
2017-12-14T16:02:21.458Z,12.25
2017-12-14T16:04:47.911Z,12.23
2017-12-14T16:07:14.513Z,12.24
2017-12-14T16:09:41.077Z,12.20
2017-12-14T16:12:07.543Z,12.18
2017-12-14T16:14:34.085Z,12.20
2017-12-14T16:17:00.773Z,12.14
2017-12-14T16:19:27.238Z,12.14
2017-12-14T16:21:53.753Z,12.12
2017-12-14T16:24:20.278Z,12.16
2017-12-14T16:26:46.694Z,12.15
2017-12-14T16:29:13.166Z,12.14
2017-12-14T16:31:39.629Z,12.15
2017-12-14T16:34:06.226Z,12.12
2017-12-14T16:36:32.789Z,12.05
2017-12-14T16:39:00.325Z,11.97
2017-12-14T16:41:27.131Z,11.91
2017-12-14T16:43:53.659Z,11.87
2017-12-14T16:46:20.141Z,11.83
2017-12-14T16:48:46.886Z,11.75
2017-12-14T16:51:13.372Z,11.67
2017-12-14T16:53:39.937Z,11.64
2017-12-14T16:56:06.382Z,11.60
2017-12-14T16:58:32.855Z,11.58
2017-12-14T17:00:59.366Z,11.55
2017-12-14T17:03:25.974Z,11.48
2017-12-14T17:05:52.587Z,11.42
2017-12-14T17:08:19.097Z,11.42
2017-12-14T17:10:45.545Z,11.39
2017-12-14T17:13:12.150Z,11.32
2017-12-14T17:15:39.525Z,11.28
2017-12-14T17:18:06.126Z,11.24
2017-12-14T17:20:32.678Z,11.19
2017-12-14T17:22:59.193Z,11.13
2017-12-14T17:25:25.774Z,11.10
2017-12-14T17:27:52.694Z,11.03
2017-12-14T17:30:19.230Z,10.98
2017-12-14T17:32:45.724Z,10.89
2017-12-14T17:35:12.202Z,10.90
2017-12-14T17:37:38.653Z,10.90
2017-12-14T17:40:05.065Z,10.91
2017-12-14T17:42:31.546Z,10.86
2017-12-14T17:44:58.023Z,10.85
2017-12-14T17:47:24.535Z,10.82
2017-12-14T17:49:51.113Z,10.83
2017-12-14T17:52:17.689Z,10.83
2017-12-14T17:54:44.273Z,10.78
2017-12-14T17:57:10.733Z,10.71
2017-12-14T17:59:40.431Z,10.67
2017-12-14T18:02:08.627Z,10.59
2017-12-14T18:04:35.130Z,10.53
2017-12-14T18:07:01.698Z,10.48
2017-12-14T18:09:28.186Z,10.42
2017-12-14T18:11:55.045Z,10.47
2017-12-14T18:14:21.527Z,10.36
2017-12-14T18:16:48.042Z,10.28
2017-12-14T18:19:14.862Z,10.24
2017-12-14T18:21:41.406Z,10.15
2017-12-14T18:24:07.839Z,10.12
2017-12-14T18:26:34.308Z,10.17
2017-12-14T18:29:01.398Z,10.18
2017-12-14T18:31:27.974Z,10.19
2017-12-14T18:33:54.552Z,10.17
2017-12-14T18:36:21.222Z,10.15
2017-12-14T18:38:47.790Z,10.13
2017-12-14T18:41:14.309Z,10.01
2017-12-14T18:43:40.813Z,10.01
2017-12-14T18:46:07.262Z,10.12
2017-12-14T18:48:33.825Z,10.18
2017-12-14T18:51:00.394Z,10.16
2017-12-14T18:53:26.901Z,10.08
2017-12-14T18:55:53.367Z,10.01
2017-12-14T18:58:19.850Z,9.95
2017-12-14T19:00:46.370Z,9.92
2017-12-14T19:03:12.959Z,9.92
2017-12-14T19:05:39.598Z,9.84
2017-12-14T19:08:06.150Z,9.78
2017-12-14T19:10:32.700Z,9.76
2017-12-14T19:12:59.290Z,9.73
2017-12-14T19:15:25.898Z,9.67
2017-12-14T19:17:52.437Z,9.68
2017-12-14T19:20:19.078Z,9.63
2017-12-14T19:22:45.653Z,9.64
2017-12-14T19:25:12.363Z,9.62
2017-12-14T19:27:39.086Z,9.56
2017-12-14T19:30:05.737Z,9.48
2017-12-14T19:32:32.421Z,9.37
2017-12-14T19:34:59.095Z,9.37
2017-12-14T19:37:25.593Z,9.39
2017-12-14T19:39:52.333Z,9.43
2017-12-14T19:42:18.933Z,9.49
2017-12-14T19:44:45.447Z,9.54
2017-12-14T19:47:11.978Z,9.60
2017-12-14T19:49:38.555Z,9.59
2017-12-14T19:52:05.062Z,9.54
2017-12-14T19:54:31.598Z,9.50
2017-12-14T19:56:58.120Z,9.48
2017-12-14T19:59:24.580Z,9.47
2017-12-14T20:01:51.074Z,9.42
2017-12-14T20:04:17.638Z,9.36
2017-12-14T20:06:44.202Z,9.28
2017-12-14T20:09:10.700Z,9.28
2017-12-14T20:11:37.222Z,9.26
2017-12-14T20:14:03.723Z,9.35
2017-12-14T20:16:30.242Z,9.37
2017-12-14T20:18:56.814Z,9.28
2017-12-14T20:21:23.372Z,9.24
2017-12-14T20:23:49.853Z,9.18
2017-12-14T20:26:16.687Z,9.14
2017-12-14T20:28:43.355Z,9.18
2017-12-14T20:31:09.870Z,9.17
2017-12-14T20:33:36.429Z,9.11
2017-12-14T20:36:03.090Z,9.03
2017-12-14T20:38:29.642Z,8.93
2017-12-14T20:40:56.297Z,8.84
2017-12-14T20:43:22.807Z,8.83
2017-12-14T20:45:49.426Z,8.79
2017-12-14T20:48:16.126Z,8.67
2017-12-14T20:50:42.679Z,8.68
2017-12-14T20:53:09.193Z,8.69
2017-12-14T20:55:35.792Z,8.68
2017-12-14T20:58:02.268Z,8.65
2017-12-14T21:00:28.730Z,8.56
2017-12-14T21:02:55.241Z,8.53
2017-12-14T21:05:21.677Z,8.56
2017-12-14T21:07:48.167Z,8.61
2017-12-14T21:10:14.681Z,8.62
2017-12-14T21:12:41.265Z,8.71
2017-12-14T21:15:07.891Z,8.75
2017-12-14T21:17:34.492Z,8.73
2017-12-14T21:20:00.947Z,8.61
2017-12-14T21:22:27.579Z,8.54
2017-12-14T21:24:54.101Z,8.57
2017-12-14T21:27:20.522Z,8.64
2017-12-14T21:29:47.021Z,8.67
2017-12-14T21:32:13.627Z,8.60
2017-12-14T21:34:40.125Z,8.44
2017-12-14T21:37:06.585Z,8.40
2017-12-14T21:39:33.082Z,8.37
2017-12-14T21:41:59.532Z,8.35
2017-12-14T21:44:26.037Z,8.34
2017-12-14T21:46:53.560Z,8.35
2017-12-14T21:49:20.318Z,8.34
2017-12-14T21:51:47.138Z,8.31
2017-12-14T21:54:13.698Z,8.26
2017-12-14T21:56:40.191Z,8.26
2017-12-14T21:59:06.781Z,8.22
2017-12-14T22:01:33.370Z,8.25
2017-12-14T22:03:59.877Z,8.31
2017-12-14T22:06:26.576Z,8.26
2017-12-14T22:08:53.392Z,8.19
2017-12-14T22:11:20.251Z,8.20
2017-12-14T22:13:46.877Z,8.07
2017-12-14T22:16:13.454Z,8.04
2017-12-14T22:18:40.025Z,8.05
2017-12-14T22:21:06.502Z,8.10
2017-12-14T22:23:33.246Z,8.20
2017-12-14T22:25:59.741Z,8.24
2017-12-14T22:28:26.148Z,8.29
2017-12-14T22:30:52.706Z,8.34
2017-12-14T22:33:19.227Z,8.37
2017-12-14T22:35:46.025Z,8.46
2017-12-14T22:38:12.517Z,8.56
2017-12-14T22:40:39.013Z,8.55
2017-12-14T22:43:05.575Z,8.45
2017-12-14T22:45:32.110Z,8.35
2017-12-14T22:47:58.598Z,8.26
2017-12-14T22:50:25.097Z,8.20
2017-12-14T22:52:51.620Z,8.05
2017-12-14T22:55:18.125Z,8.08
2017-12-14T22:57:44.737Z,8.20
2017-12-14T23:00:11.222Z,8.42
2017-12-14T23:02:37.765Z,8.45
2017-12-14T23:05:04.221Z,8.37
2017-12-14T23:07:30.771Z,8.25
2017-12-14T23:09:57.273Z,8.09
2017-12-14T23:12:23.697Z,8.07
2017-12-14T23:14:50.081Z,7.99
2017-12-14T23:17:16.593Z,7.93
2017-12-14T23:19:43.038Z,7.95
2017-12-14T23:22:09.489Z,7.89
2017-12-14T23:24:35.872Z,7.86
2017-12-14T23:27:02.952Z,7.96
2017-12-14T23:29:29.389Z,8.02
2017-12-14T23:31:55.765Z,8.03
2017-12-14T23:34:22.185Z,8.04
2017-12-14T23:36:48.617Z,7.97
2017-12-14T23:39:15.361Z,7.97
2017-12-14T23:41:41.813Z,7.98
2017-12-14T23:44:08.221Z,7.98
2017-12-14T23:46:34.592Z,7.93
2017-12-14T23:49:01.017Z,7.82
2017-12-14T23:51:27.453Z,7.77
2017-12-14T23:53:53.858Z,7.77
2017-12-14T23:56:20.257Z,7.75
2017-12-14T23:58:46.676Z,7.79
